sensor_id;sensor_type;location;lat;lon;timestamp;P1;durP1;ratioP1;P2;durP2;ratioP2
17451;SDS011;8843;48.838;9.324;2022-11-15T00:00:45;4.30;;;2.53;;
17451;SDS011;8843;48.838;9.324;2022-11-15T00:03:13;3.03;;;2.73;;
17451;SDS011;8843;48.838;9.324;2022-11-15T00:05:41;5.47;;;2.70;;
17451;SDS011;8843;48.838;9.324;2022-11-15T00:08:08;2.97;;;2.70;;
17451;SDS011;8843;48.838;9.324;2022-11-15T00:10:34;5.13;;;2.80;;
17451;SDS011;8843;48.838;9.324;2022-11-15T00:13:04;6.13;;;2.80;;
17451;SDS011;8843;48.838;9.324;2022-11-15T00:15:32;4.10;;;2.77;;
17451;SDS011;8843;48.838;9.324;2022-11-15T00:18:01;4.27;;;2.90;;
17451;SDS011;8843;48.838;9.324;2022-11-15T00:20:28;3.70;;;2.83;;
17451;SDS011;8843;48.838;9.324;2022-11-15T00:22:55;3.43;;;3.00;;
17451;SDS011;8843;48.838;9.324;2022-11-15T00:25:22;6.60;;;3.37;;
17451;SDS011;8843;48.838;9.324;2022-11-15T00:27:49;4.47;;;3.30;;
17451;SDS011;8843;48.838;9.324;2022-11-15T00:30:16;3.27;;;2.97;;
17451;SDS011;8843;48.838;9.324;2022-11-15T00:32:45;4.90;;;3.60;;
17451;SDS011;8843;48.838;9.324;2022-11-15T00:35:11;4.97;;;3.20;;
17451;SDS011;8843;48.838;9.324;2022-11-15T00:37:38;3.27;;;2.93;;
17451;SDS011;8843;48.838;9.324;2022-11-15T00:40:06;3.07;;;2.77;;
17451;SDS011;8843;48.838;9.324;2022-11-15T00:42:34;4.13;;;3.10;;
17451;SDS011;8843;48.838;9.324;2022-11-15T00:45:00;4.17;;;3.00;;
17451;SDS011;8843;48.838;9.324;2022-11-15T00:47:27;4.60;;;3.20;;
17451;SDS011;8843;48.838;9.324;2022-11-15T00:49:55;4.30;;;3.17;;
17451;SDS011;8843;48.838;9.324;2022-11-15T00:52:22;5.27;;;3.50;;
17451;SDS011;8843;48.838;9.324;2022-11-15T00:54:49;4.17;;;3.13;;
17451;SDS011;8843;48.838;9.324;2022-11-15T00:57:16;5.37;;;3.20;;
17451;SDS011;8843;48.838;9.324;2022-11-15T00:59:43;4.20;;;3.60;;
17451;SDS011;8843;48.838;9.324;2022-11-15T01:02:10;3.83;;;2.60;;
17451;SDS011;8843;48.838;9.324;2022-11-15T01:04:37;3.40;;;2.87;;
17451;SDS011;8843;48.838;9.324;2022-11-15T01:07:05;3.80;;;2.83;;
17451;SDS011;8843;48.838;9.324;2022-11-15T01:09:32;3.33;;;2.57;;
17451;SDS011;8843;48.838;9.324;2022-11-15T01:11:59;3.23;;;2.93;;
17451;SDS011;8843;48.838;9.324;2022-11-15T01:14:26;2.97;;;2.67;;
17451;SDS011;8843;48.838;9.324;2022-11-15T01:16:53;2.93;;;2.20;;
17451;SDS011;8843;48.838;9.324;2022-11-15T01:19:19;4.10;;;2.53;;
17451;SDS011;8843;48.838;9.324;2022-11-15T01:21:48;3.63;;;3.10;;
17451;SDS011;8843;48.838;9.324;2022-11-15T01:24:16;3.53;;;3.13;;
17451;SDS011;8843;48.838;9.324;2022-11-15T01:26:43;3.67;;;2.77;;
17451;SDS011;8843;48.838;9.324;2022-11-15T01:29:10;4.80;;;3.40;;
17451;SDS011;8843;48.838;9.324;2022-11-15T01:31:37;3.90;;;3.60;;
17451;SDS011;8843;48.838;9.324;2022-11-15T01:34:04;5.60;;;3.47;;
17451;SDS011;8843;48.838;9.324;2022-11-15T01:36:31;4.63;;;3.73;;
17451;SDS011;8843;48.838;9.324;2022-11-15T01:38:58;7.07;;;3.73;;
17451;SDS011;8843;48.838;9.324;2022-11-15T01:41:27;5.87;;;3.63;;
17451;SDS011;8843;48.838;9.324;2022-11-15T01:43:56;4.90;;;3.90;;
17451;SDS011;8843;48.838;9.324;2022-11-15T01:46:26;4.83;;;4.10;;
17451;SDS011;8843;48.838;9.324;2022-11-15T01:48:56;5.90;;;3.73;;
17451;SDS011;8843;48.838;9.324;2022-11-15T01:51:27;4.70;;;3.73;;
17451;SDS011;8843;48.838;9.324;2022-11-15T01:53:59;5.67;;;4.10;;
17451;SDS011;8843;48.838;9.324;2022-11-15T01:56:32;4.17;;;3.30;;
17451;SDS011;8843;48.838;9.324;2022-11-15T01:59:07;6.00;;;4.20;;
17451;SDS011;8843;48.838;9.324;2022-11-15T02:01:34;4.23;;;3.70;;
17451;SDS011;8843;48.838;9.324;2022-11-15T02:04:02;4.53;;;3.60;;
17451;SDS011;8843;48.838;9.324;2022-11-15T02:06:33;4.30;;;3.90;;
17451;SDS011;8843;48.838;9.324;2022-11-15T02:09:01;4.40;;;4.00;;
17451;SDS011;8843;48.838;9.324;2022-11-15T02:11:28;5.17;;;4.53;;
17451;SDS011;8843;48.838;9.324;2022-11-15T02:13:57;4.60;;;3.73;;
17451;SDS011;8843;48.838;9.324;2022-11-15T02:16:27;5.17;;;4.30;;
17451;SDS011;8843;48.838;9.324;2022-11-15T02:19:01;4.90;;;4.03;;
17451;SDS011;8843;48.838;9.324;2022-11-15T02:21:37;4.60;;;3.40;;
17451;SDS011;8843;48.838;9.324;2022-11-15T02:24:24;7.80;;;4.83;;
17451;SDS011;8843;48.838;9.324;2022-11-15T02:27:29;7.97;;;4.43;;
17451;SDS011;8843;48.838;9.324;2022-11-15T02:30:25;5.00;;;4.50;;
17451;SDS011;8843;48.838;9.324;2022-11-15T02:33:02;4.73;;;4.33;;
17451;SDS011;8843;48.838;9.324;2022-11-15T02:35:40;4.63;;;3.70;;
17451;SDS011;8843;48.838;9.324;2022-11-15T02:38:15;5.77;;;4.00;;
17451;SDS011;8843;48.838;9.324;2022-11-15T02:40:49;5.53;;;4.77;;
17451;SDS011;8843;48.838;9.324;2022-11-15T02:43:21;5.63;;;3.90;;
17451;SDS011;8843;48.838;9.324;2022-11-15T02:46:14;4.73;;;4.10;;
17451;SDS011;8843;48.838;9.324;2022-11-15T02:48:46;4.27;;;3.43;;
17451;SDS011;8843;48.838;9.324;2022-11-15T02:51:15;5.73;;;4.23;;
17451;SDS011;8843;48.838;9.324;2022-11-15T02:53:43;6.57;;;3.77;;
17451;SDS011;8843;48.838;9.324;2022-11-15T02:56:10;6.27;;;3.60;;
17451;SDS011;8843;48.838;9.324;2022-11-15T03:01:31;5.43;;;3.93;;
17451;SDS011;8843;48.838;9.324;2022-11-15T03:04:12;6.80;;;4.13;;
17451;SDS011;8843;48.838;9.324;2022-11-15T03:06:48;11.03;;;4.20;;
17451;SDS011;8843;48.838;9.324;2022-11-15T03:09:21;6.87;;;3.67;;
17451;SDS011;8843;48.838;9.324;2022-11-15T03:11:56;4.10;;;3.70;;
17451;SDS011;8843;48.838;9.324;2022-11-15T03:14:29;6.67;;;3.43;;
17451;SDS011;8843;48.838;9.324;2022-11-15T03:17:01;7.87;;;3.50;;
17451;SDS011;8843;48.838;9.324;2022-11-15T03:19:35;3.93;;;3.13;;
17451;SDS011;8843;48.838;9.324;2022-11-15T03:22:11;6.37;;;3.63;;
17451;SDS011;8843;48.838;9.324;2022-11-15T03:24:44;5.87;;;3.70;;
17451;SDS011;8843;48.838;9.324;2022-11-15T03:27:14;5.43;;;4.03;;
17451;SDS011;8843;48.838;9.324;2022-11-15T03:29:47;4.60;;;3.30;;
17451;SDS011;8843;48.838;9.324;2022-11-15T03:32:22;4.27;;;3.40;;
17451;SDS011;8843;48.838;9.324;2022-11-15T03:34:52;5.70;;;3.60;;
17451;SDS011;8843;48.838;9.324;2022-11-15T03:37:25;4.97;;;3.33;;
17451;SDS011;8843;48.838;9.324;2022-11-15T03:39:58;5.37;;;3.57;;
17451;SDS011;8843;48.838;9.324;2022-11-15T03:42:27;4.10;;;3.10;;
17451;SDS011;8843;48.838;9.324;2022-11-15T03:44:58;3.50;;;3.20;;
17451;SDS011;8843;48.838;9.324;2022-11-15T03:47:31;4.50;;;3.13;;
17451;SDS011;8843;48.838;9.324;2022-11-15T03:50:01;5.37;;;3.20;;
17451;SDS011;8843;48.838;9.324;2022-11-15T03:52:31;4.03;;;3.23;;
17451;SDS011;8843;48.838;9.324;2022-11-15T03:55:00;4.60;;;3.13;;
17451;SDS011;8843;48.838;9.324;2022-11-15T03:57:28;3.80;;;3.23;;
17451;SDS011;8843;48.838;9.324;2022-11-15T03:59:55;3.47;;;2.87;;
17451;SDS011;8843;48.838;9.324;2022-11-15T04:02:22;5.70;;;3.70;;
17451;SDS011;8843;48.838;9.324;2022-11-15T04:04:51;4.03;;;3.40;;
17451;SDS011;8843;48.838;9.324;2022-11-15T04:07:17;4.50;;;3.30;;
17451;SDS011;8843;48.838;9.324;2022-11-15T04:09:44;4.10;;;3.40;;
17451;SDS011;8843;48.838;9.324;2022-11-15T04:12:25;5.13;;;3.57;;
17451;SDS011;8843;48.838;9.324;2022-11-15T04:14:57;5.63;;;3.83;;
17451;SDS011;8843;48.838;9.324;2022-11-15T04:17:34;3.80;;;3.30;;
17451;SDS011;8843;48.838;9.324;2022-11-15T04:20:03;3.80;;;3.20;;
17451;SDS011;8843;48.838;9.324;2022-11-15T04:22:51;3.20;;;2.90;;
17451;SDS011;8843;48.838;9.324;2022-11-15T04:25:36;3.57;;;3.23;;
17451;SDS011;8843;48.838;9.324;2022-11-15T04:28:03;4.47;;;3.40;;
17451;SDS011;8843;48.838;9.324;2022-11-15T04:30:30;4.83;;;3.50;;
17451;SDS011;8843;48.838;9.324;2022-11-15T04:32:57;5.00;;;3.23;;
17451;SDS011;8843;48.838;9.324;2022-11-15T04:35:26;4.13;;;3.13;;
17451;SDS011;8843;48.838;9.324;2022-11-15T04:37:52;4.23;;;3.50;;
17451;SDS011;8843;48.838;9.324;2022-11-15T04:40:19;3.37;;;3.00;;
17451;SDS011;8843;48.838;9.324;2022-11-15T04:42:46;3.90;;;3.13;;
17451;SDS011;8843;48.838;9.324;2022-11-15T04:45:13;4.57;;;3.27;;
17451;SDS011;8843;48.838;9.324;2022-11-15T04:47:42;3.73;;;2.93;;
17451;SDS011;8843;48.838;9.324;2022-11-15T04:50:10;3.90;;;3.43;;
17451;SDS011;8843;48.838;9.324;2022-11-15T04:52:39;3.53;;;3.07;;
17451;SDS011;8843;48.838;9.324;2022-11-15T04:55:07;4.67;;;2.90;;
17451;SDS011;8843;48.838;9.324;2022-11-15T04:57:34;3.20;;;2.80;;
17451;SDS011;8843;48.838;9.324;2022-11-15T05:00:01;4.03;;;3.20;;
17451;SDS011;8843;48.838;9.324;2022-11-15T05:02:29;5.27;;;3.90;;
17451;SDS011;8843;48.838;9.324;2022-11-15T05:05:16;5.87;;;3.50;;
17451;SDS011;8843;48.838;9.324;2022-11-15T05:07:43;3.70;;;3.30;;
17451;SDS011;8843;48.838;9.324;2022-11-15T05:10:10;4.10;;;3.03;;
17451;SDS011;8843;48.838;9.324;2022-11-15T05:12:37;3.50;;;3.20;;
17451;SDS011;8843;48.838;9.324;2022-11-15T05:15:04;3.93;;;3.50;;
17451;SDS011;8843;48.838;9.324;2022-11-15T05:17:32;4.00;;;3.20;;
17451;SDS011;8843;48.838;9.324;2022-11-15T05:19:59;4.97;;;3.03;;
17451;SDS011;8843;48.838;9.324;2022-11-15T05:22:26;3.50;;;3.20;;
17451;SDS011;8843;48.838;9.324;2022-11-15T05:24:55;7.00;;;3.63;;
17451;SDS011;8843;48.838;9.324;2022-11-15T05:27:22;5.17;;;3.47;;
17451;SDS011;8843;48.838;9.324;2022-11-15T05:29:48;4.37;;;3.10;;
17451;SDS011;8843;48.838;9.324;2022-11-15T05:32:15;4.90;;;3.27;;
17451;SDS011;8843;48.838;9.324;2022-11-15T05:34:44;5.80;;;3.90;;
17451;SDS011;8843;48.838;9.324;2022-11-15T05:37:11;5.97;;;4.37;;
17451;SDS011;8843;48.838;9.324;2022-11-15T05:39:38;4.63;;;4.07;;
17451;SDS011;8843;48.838;9.324;2022-11-15T05:42:08;5.83;;;3.73;;
17451;SDS011;8843;48.838;9.324;2022-11-15T05:44:38;5.57;;;3.90;;
17451;SDS011;8843;48.838;9.324;2022-11-15T05:47:08;4.33;;;3.83;;
17451;SDS011;8843;48.838;9.324;2022-11-15T05:49:38;7.13;;;4.17;;
17451;SDS011;8843;48.838;9.324;2022-11-15T05:52:08;6.50;;;3.80;;
17451;SDS011;8843;48.838;9.324;2022-11-15T05:54:38;4.30;;;3.67;;
17451;SDS011;8843;48.838;9.324;2022-11-15T05:57:07;4.93;;;3.00;;
17451;SDS011;8843;48.838;9.324;2022-11-15T05:59:34;4.97;;;3.47;;
17451;SDS011;8843;48.838;9.324;2022-11-15T06:02:01;5.37;;;3.70;;
17451;SDS011;8843;48.838;9.324;2022-11-15T06:04:28;4.47;;;3.40;;
17451;SDS011;8843;48.838;9.324;2022-11-15T06:06:55;5.60;;;4.00;;
17451;SDS011;8843;48.838;9.324;2022-11-15T06:09:24;5.57;;;3.70;;
17451;SDS011;8843;48.838;9.324;2022-11-15T06:11:51;8.93;;;5.03;;
17451;SDS011;8843;48.838;9.324;2022-11-15T06:14:19;5.40;;;3.90;;
17451;SDS011;8843;48.838;9.324;2022-11-15T06:16:46;6.43;;;3.90;;
17451;SDS011;8843;48.838;9.324;2022-11-15T06:19:13;6.03;;;3.67;;
17451;SDS011;8843;48.838;9.324;2022-11-15T06:21:40;6.07;;;4.00;;
17451;SDS011;8843;48.838;9.324;2022-11-15T06:24:07;4.67;;;4.17;;
17451;SDS011;8843;48.838;9.324;2022-11-15T06:26:34;4.73;;;3.80;;
17451;SDS011;8843;48.838;9.324;2022-11-15T06:29:01;5.13;;;3.90;;
17451;SDS011;8843;48.838;9.324;2022-11-15T06:31:30;5.00;;;4.00;;
17451;SDS011;8843;48.838;9.324;2022-11-15T06:33:57;4.50;;;3.77;;
17451;SDS011;8843;48.838;9.324;2022-11-15T06:36:24;7.73;;;4.73;;
17451;SDS011;8843;48.838;9.324;2022-11-15T06:38:50;4.73;;;3.90;;
17451;SDS011;8843;48.838;9.324;2022-11-15T06:41:18;8.27;;;4.30;;
17451;SDS011;8843;48.838;9.324;2022-11-15T06:43:46;4.97;;;3.33;;
17451;SDS011;8843;48.838;9.324;2022-11-15T06:46:13;4.40;;;3.37;;
17451;SDS011;8843;48.838;9.324;2022-11-15T06:48:41;4.43;;;3.60;;
17451;SDS011;8843;48.838;9.324;2022-11-15T06:51:08;9.60;;;3.83;;
17451;SDS011;8843;48.838;9.324;2022-11-15T06:53:35;5.67;;;4.03;;
17451;SDS011;8843;48.838;9.324;2022-11-15T06:56:03;4.97;;;3.90;;
17451;SDS011;8843;48.838;9.324;2022-11-15T06:58:32;7.90;;;4.43;;
17451;SDS011;8843;48.838;9.324;2022-11-15T07:00:59;8.00;;;4.47;;
17451;SDS011;8843;48.838;9.324;2022-11-15T07:03:26;5.00;;;4.00;;
17451;SDS011;8843;48.838;9.324;2022-11-15T07:05:55;5.60;;;3.97;;
17451;SDS011;8843;48.838;9.324;2022-11-15T07:08:23;5.93;;;4.80;;
17451;SDS011;8843;48.838;9.324;2022-11-15T07:10:52;10.60;;;4.70;;
17451;SDS011;8843;48.838;9.324;2022-11-15T07:13:19;3.97;;;3.53;;
17451;SDS011;8843;48.838;9.324;2022-11-15T07:15:46;5.97;;;3.93;;
17451;SDS011;8843;48.838;9.324;2022-11-15T07:18:13;7.87;;;4.20;;
17451;SDS011;8843;48.838;9.324;2022-11-15T07:20:40;5.63;;;4.47;;
17451;SDS011;8843;48.838;9.324;2022-11-15T07:23:08;6.50;;;3.77;;
17451;SDS011;8843;48.838;9.324;2022-11-15T07:25:36;6.10;;;4.30;;
17451;SDS011;8843;48.838;9.324;2022-11-15T07:28:03;5.80;;;4.43;;
17451;SDS011;8843;48.838;9.324;2022-11-15T07:30:30;7.73;;;5.17;;
17451;SDS011;8843;48.838;9.324;2022-11-15T07:32:57;9.63;;;4.30;;
17451;SDS011;8843;48.838;9.324;2022-11-15T07:35:26;6.10;;;4.43;;
17451;SDS011;8843;48.838;9.324;2022-11-15T07:37:54;5.33;;;3.77;;
17451;SDS011;8843;48.838;9.324;2022-11-15T07:40:23;6.03;;;4.10;;
17451;SDS011;8843;48.838;9.324;2022-11-15T07:42:50;4.90;;;3.70;;
17451;SDS011;8843;48.838;9.324;2022-11-15T07:45:21;5.43;;;3.97;;
17451;SDS011;8843;48.838;9.324;2022-11-15T07:47:48;7.80;;;4.47;;
17451;SDS011;8843;48.838;9.324;2022-11-15T07:50:16;5.80;;;3.77;;
17451;SDS011;8843;48.838;9.324;2022-11-15T07:52:43;6.83;;;4.20;;
17451;SDS011;8843;48.838;9.324;2022-11-15T07:55:10;7.63;;;4.07;;
17451;SDS011;8843;48.838;9.324;2022-11-15T07:57:38;5.37;;;4.20;;
17451;SDS011;8843;48.838;9.324;2022-11-15T08:00:06;5.57;;;4.50;;
17451;SDS011;8843;48.838;9.324;2022-11-15T08:02:33;6.97;;;4.60;;
17451;SDS011;8843;48.838;9.324;2022-11-15T08:05:00;4.90;;;3.57;;
17451;SDS011;8843;48.838;9.324;2022-11-15T08:07:28;5.10;;;3.77;;
17451;SDS011;8843;48.838;9.324;2022-11-15T08:09:56;5.77;;;4.03;;
17451;SDS011;8843;48.838;9.324;2022-11-15T08:12:23;6.13;;;3.97;;
17451;SDS011;8843;48.838;9.324;2022-11-15T08:14:51;6.23;;;4.17;;
17451;SDS011;8843;48.838;9.324;2022-11-15T08:17:18;5.63;;;4.57;;
17451;SDS011;8843;48.838;9.324;2022-11-15T08:19:45;5.00;;;3.90;;
17451;SDS011;8843;48.838;9.324;2022-11-15T08:22:12;5.23;;;4.53;;
17451;SDS011;8843;48.838;9.324;2022-11-15T08:24:38;5.77;;;4.13;;
17451;SDS011;8843;48.838;9.324;2022-11-15T08:27:05;4.77;;;4.17;;
17451;SDS011;8843;48.838;9.324;2022-11-15T08:29:40;10.53;;;5.33;;
17451;SDS011;8843;48.838;9.324;2022-11-15T08:32:09;7.80;;;4.60;;
17451;SDS011;8843;48.838;9.324;2022-11-15T08:34:36;5.37;;;4.20;;
17451;SDS011;8843;48.838;9.324;2022-11-15T08:37:04;7.90;;;4.97;;
17451;SDS011;8843;48.838;9.324;2022-11-15T08:39:31;5.67;;;4.37;;
17451;SDS011;8843;48.838;9.324;2022-11-15T08:41:58;6.67;;;4.90;;
17451;SDS011;8843;48.838;9.324;2022-11-15T08:44:25;7.43;;;4.80;;
17451;SDS011;8843;48.838;9.324;2022-11-15T08:46:51;7.50;;;4.73;;
17451;SDS011;8843;48.838;9.324;2022-11-15T08:49:20;9.53;;;5.10;;
17451;SDS011;8843;48.838;9.324;2022-11-15T08:51:47;10.40;;;4.87;;
17451;SDS011;8843;48.838;9.324;2022-11-15T08:54:13;8.53;;;6.00;;
17451;SDS011;8843;48.838;9.324;2022-11-15T08:56:40;6.00;;;5.10;;
17451;SDS011;8843;48.838;9.324;2022-11-15T08:59:07;9.60;;;5.03;;
17451;SDS011;8843;48.838;9.324;2022-11-15T09:01:34;8.63;;;5.23;;
17451;SDS011;8843;48.838;9.324;2022-11-15T09:04:01;7.23;;;5.00;;
17451;SDS011;8843;48.838;9.324;2022-11-15T09:06:30;7.07;;;4.90;;
17451;SDS011;8843;48.838;9.324;2022-11-15T09:08:57;9.67;;;5.17;;
17451;SDS011;8843;48.838;9.324;2022-11-15T09:11:24;7.10;;;5.10;;
17451;SDS011;8843;48.838;9.324;2022-11-15T09:13:51;5.83;;;4.73;;
17451;SDS011;8843;48.838;9.324;2022-11-15T09:16:18;7.60;;;4.77;;
17451;SDS011;8843;48.838;9.324;2022-11-15T09:18:45;8.93;;;5.10;;
17451;SDS011;8843;48.838;9.324;2022-11-15T09:21:12;6.70;;;4.77;;
17451;SDS011;8843;48.838;9.324;2022-11-15T09:23:40;9.73;;;6.07;;
17451;SDS011;8843;48.838;9.324;2022-11-15T09:26:07;9.37;;;5.10;;
17451;SDS011;8843;48.838;9.324;2022-11-15T09:28:34;11.07;;;5.87;;
17451;SDS011;8843;48.838;9.324;2022-11-15T09:31:03;7.60;;;5.47;;
17451;SDS011;8843;48.838;9.324;2022-11-15T09:33:31;6.83;;;5.37;;
17451;SDS011;8843;48.838;9.324;2022-11-15T09:36:01;8.00;;;5.60;;
17451;SDS011;8843;48.838;9.324;2022-11-15T09:38:29;7.33;;;5.80;;
17451;SDS011;8843;48.838;9.324;2022-11-15T09:41:08;8.03;;;6.10;;
17451;SDS011;8843;48.838;9.324;2022-11-15T09:43:50;9.33;;;6.40;;
17451;SDS011;8843;48.838;9.324;2022-11-15T09:46:30;8.90;;;5.77;;
17451;SDS011;8843;48.838;9.324;2022-11-15T09:49:06;9.67;;;5.77;;
17451;SDS011;8843;48.838;9.324;2022-11-15T09:51:36;8.00;;;6.00;;
17451;SDS011;8843;48.838;9.324;2022-11-15T09:54:12;7.03;;;5.87;;
17451;SDS011;8843;48.838;9.324;2022-11-15T09:56:45;6.07;;;5.30;;
17451;SDS011;8843;48.838;9.324;2022-11-15T09:59:16;7.33;;;5.40;;
17451;SDS011;8843;48.838;9.324;2022-11-15T10:02:01;7.47;;;5.50;;
17451;SDS011;8843;48.838;9.324;2022-11-15T10:04:38;6.93;;;5.40;;
17451;SDS011;8843;48.838;9.324;2022-11-15T10:07:06;9.93;;;5.00;;
17451;SDS011;8843;48.838;9.324;2022-11-15T10:09:42;11.17;;;6.07;;
17451;SDS011;8843;48.838;9.324;2022-11-15T10:12:15;9.43;;;5.47;;
17451;SDS011;8843;48.838;9.324;2022-11-15T10:14:43;7.83;;;5.10;;
17451;SDS011;8843;48.838;9.324;2022-11-15T10:17:23;5.97;;;5.37;;
17451;SDS011;8843;48.838;9.324;2022-11-15T10:20:09;5.77;;;5.03;;
17451;SDS011;8843;48.838;9.324;2022-11-15T10:22:44;8.47;;;4.43;;
17451;SDS011;8843;48.838;9.324;2022-11-15T10:25:16;6.13;;;3.60;;
17451;SDS011;8843;48.838;9.324;2022-11-15T10:27:47;6.77;;;3.90;;
17451;SDS011;8843;48.838;9.324;2022-11-15T10:30:19;5.00;;;3.90;;
17451;SDS011;8843;48.838;9.324;2022-11-15T10:32:47;7.57;;;3.53;;
17451;SDS011;8843;48.838;9.324;2022-11-15T10:35:16;4.83;;;3.10;;
17451;SDS011;8843;48.838;9.324;2022-11-15T10:37:48;5.53;;;3.67;;
17451;SDS011;8843;48.838;9.324;2022-11-15T10:40:16;5.30;;;2.90;;
17451;SDS011;8843;48.838;9.324;2022-11-15T10:42:46;5.27;;;2.63;;
17451;SDS011;8843;48.838;9.324;2022-11-15T10:45:22;5.20;;;3.00;;
17451;SDS011;8843;48.838;9.324;2022-11-15T10:47:51;3.53;;;2.83;;
17451;SDS011;8843;48.838;9.324;2022-11-15T10:50:26;4.53;;;2.40;;
17451;SDS011;8843;48.838;9.324;2022-11-15T10:52:55;4.10;;;2.37;;
17451;SDS011;8843;48.838;9.324;2022-11-15T10:55:23;3.23;;;2.90;;
17451;SDS011;8843;48.838;9.324;2022-11-15T10:57:55;3.17;;;2.60;;
17451;SDS011;8843;48.838;9.324;2022-11-15T11:00:34;3.13;;;2.83;;
17451;SDS011;8843;48.838;9.324;2022-11-15T11:03:04;5.43;;;2.83;;
17451;SDS011;8843;48.838;9.324;2022-11-15T11:05:33;4.10;;;2.40;;
17451;SDS011;8843;48.838;9.324;2022-11-15T11:08:02;6.00;;;3.00;;
17451;SDS011;8843;48.838;9.324;2022-11-15T11:10:31;4.90;;;2.90;;
17451;SDS011;8843;48.838;9.324;2022-11-15T11:13:13;4.93;;;3.40;;
17451;SDS011;8843;48.838;9.324;2022-11-15T11:15:41;6.03;;;3.43;;
17451;SDS011;8843;48.838;9.324;2022-11-15T11:18:14;5.83;;;3.50;;
17451;SDS011;8843;48.838;9.324;2022-11-15T11:20:46;4.70;;;3.47;;
17451;SDS011;8843;48.838;9.324;2022-11-15T11:23:30;5.20;;;3.40;;
17451;SDS011;8843;48.838;9.324;2022-11-15T11:26:11;5.37;;;3.40;;
17451;SDS011;8843;48.838;9.324;2022-11-15T11:29:02;6.10;;;3.23;;
17451;SDS011;8843;48.838;9.324;2022-11-15T11:31:39;5.53;;;3.40;;
17451;SDS011;8843;48.838;9.324;2022-11-15T11:34:13;4.40;;;3.10;;
17451;SDS011;8843;48.838;9.324;2022-11-15T11:36:48;4.97;;;3.13;;
17451;SDS011;8843;48.838;9.324;2022-11-15T11:39:24;4.90;;;3.17;;
17451;SDS011;8843;48.838;9.324;2022-11-15T11:42:00;4.33;;;3.20;;
17451;SDS011;8843;48.838;9.324;2022-11-15T11:44:34;3.40;;;2.90;;
17451;SDS011;8843;48.838;9.324;2022-11-15T11:47:08;5.80;;;3.93;;
17451;SDS011;8843;48.838;9.324;2022-11-15T11:49:39;6.67;;;3.27;;
17451;SDS011;8843;48.838;9.324;2022-11-15T11:52:13;4.27;;;3.50;;
17451;SDS011;8843;48.838;9.324;2022-11-15T11:54:46;6.17;;;3.40;;
17451;SDS011;8843;48.838;9.324;2022-11-15T11:57:23;4.30;;;3.00;;
17451;SDS011;8843;48.838;9.324;2022-11-15T12:00:01;6.00;;;3.13;;
17451;SDS011;8843;48.838;9.324;2022-11-15T12:02:31;5.03;;;2.97;;
17451;SDS011;8843;48.838;9.324;2022-11-15T12:05:03;4.20;;;3.30;;
17451;SDS011;8843;48.838;9.324;2022-11-15T12:07:36;3.30;;;2.40;;
17451;SDS011;8843;48.838;9.324;2022-11-15T12:10:11;5.37;;;2.60;;
17451;SDS011;8843;48.838;9.324;2022-11-15T12:12:47;2.63;;;2.43;;
17451;SDS011;8843;48.838;9.324;2022-11-15T12:15:22;5.23;;;2.50;;
17451;SDS011;8843;48.838;9.324;2022-11-15T12:17:50;5.23;;;3.20;;
17451;SDS011;8843;48.838;9.324;2022-11-15T12:20:19;4.43;;;3.00;;
17451;SDS011;8843;48.838;9.324;2022-11-15T12:22:49;5.83;;;2.70;;
17451;SDS011;8843;48.838;9.324;2022-11-15T12:25:21;4.23;;;2.53;;
17451;SDS011;8843;48.838;9.324;2022-11-15T12:27:53;6.53;;;3.20;;
17451;SDS011;8843;48.838;9.324;2022-11-15T12:30:25;4.33;;;2.50;;
17451;SDS011;8843;48.838;9.324;2022-11-15T12:32:56;2.00;;;1.60;;
17451;SDS011;8843;48.838;9.324;2022-11-15T12:35:26;2.70;;;2.17;;
17451;SDS011;8843;48.838;9.324;2022-11-15T12:38:02;3.07;;;2.37;;
17451;SDS011;8843;48.838;9.324;2022-11-15T12:40:34;3.00;;;2.40;;
17451;SDS011;8843;48.838;9.324;2022-11-15T12:46:10;3.50;;;2.47;;
17451;SDS011;8843;48.838;9.324;2022-11-15T12:48:47;3.07;;;2.30;;
17451;SDS011;8843;48.838;9.324;2022-11-15T12:51:16;2.73;;;2.37;;
17451;SDS011;8843;48.838;9.324;2022-11-15T12:53:45;3.03;;;2.40;;
17451;SDS011;8843;48.838;9.324;2022-11-15T12:56:20;2.93;;;2.40;;
17451;SDS011;8843;48.838;9.324;2022-11-15T12:58:49;4.80;;;2.90;;
17451;SDS011;8843;48.838;9.324;2022-11-15T13:04:27;5.53;;;2.50;;
17451;SDS011;8843;48.838;9.324;2022-11-15T13:06:57;5.83;;;3.00;;
17451;SDS011;8843;48.838;9.324;2022-11-15T13:18:32;3.57;;;2.07;;
17451;SDS011;8843;48.838;9.324;2022-11-15T13:21:02;3.93;;;2.77;;
17451;SDS011;8843;48.838;9.324;2022-11-15T13:23:51;3.73;;;2.30;;
17451;SDS011;8843;48.838;9.324;2022-11-15T13:26:19;4.00;;;2.20;;
17451;SDS011;8843;48.838;9.324;2022-11-15T13:28:47;3.67;;;2.20;;
17451;SDS011;8843;48.838;9.324;2022-11-15T13:34:14;3.57;;;2.17;;
17451;SDS011;8843;48.838;9.324;2022-11-15T13:36:55;2.57;;;1.70;;
17451;SDS011;8843;48.838;9.324;2022-11-15T13:39:26;6.90;;;2.10;;
17451;SDS011;8843;48.838;9.324;2022-11-15T13:41:54;2.53;;;1.80;;
17451;SDS011;8843;48.838;9.324;2022-11-15T13:44:22;4.00;;;1.90;;
17451;SDS011;8843;48.838;9.324;2022-11-15T13:47:00;4.17;;;2.13;;
17451;SDS011;8843;48.838;9.324;2022-11-15T13:49:30;5.07;;;1.97;;
17451;SDS011;8843;48.838;9.324;2022-11-15T13:51:58;2.90;;;2.60;;
17451;SDS011;8843;48.838;9.324;2022-11-15T13:54:27;5.17;;;1.93;;
17451;SDS011;8843;48.838;9.324;2022-11-15T13:56:58;4.77;;;2.30;;
17451;SDS011;8843;48.838;9.324;2022-11-15T13:59:29;3.63;;;2.27;;
17451;SDS011;8843;48.838;9.324;2022-11-15T14:01:58;3.50;;;2.30;;
17451;SDS011;8843;48.838;9.324;2022-11-15T14:04:30;3.10;;;2.50;;
17451;SDS011;8843;48.838;9.324;2022-11-15T14:06:59;4.00;;;2.40;;
17451;SDS011;8843;48.838;9.324;2022-11-15T14:09:32;3.27;;;2.23;;
17451;SDS011;8843;48.838;9.324;2022-11-15T14:14:50;6.60;;;2.40;;
17451;SDS011;8843;48.838;9.324;2022-11-15T14:17:19;3.03;;;2.33;;
17451;SDS011;8843;48.838;9.324;2022-11-15T14:20:00;2.60;;;2.13;;
17451;SDS011;8843;48.838;9.324;2022-11-15T14:22:27;4.73;;;2.00;;
17451;SDS011;8843;48.838;9.324;2022-11-15T14:25:14;4.27;;;2.67;;
17451;SDS011;8843;48.838;9.324;2022-11-15T14:27:43;3.33;;;2.43;;
17451;SDS011;8843;48.838;9.324;2022-11-15T14:30:14;2.73;;;2.53;;
17451;SDS011;8843;48.838;9.324;2022-11-15T14:32:43;5.90;;;2.40;;
17451;SDS011;8843;48.838;9.324;2022-11-15T14:35:13;3.67;;;2.90;;
17451;SDS011;8843;48.838;9.324;2022-11-15T14:37:43;5.50;;;2.67;;
17451;SDS011;8843;48.838;9.324;2022-11-15T14:40:12;3.13;;;2.60;;
17451;SDS011;8843;48.838;9.324;2022-11-15T14:42:40;5.27;;;2.40;;
17451;SDS011;8843;48.838;9.324;2022-11-15T14:45:09;3.80;;;2.50;;
17451;SDS011;8843;48.838;9.324;2022-11-15T14:47:39;3.60;;;2.83;;
17451;SDS011;8843;48.838;9.324;2022-11-15T14:50:10;4.30;;;3.03;;
17451;SDS011;8843;48.838;9.324;2022-11-15T14:52:39;4.93;;;3.10;;
17451;SDS011;8843;48.838;9.324;2022-11-15T14:55:12;3.47;;;2.97;;
17451;SDS011;8843;48.838;9.324;2022-11-15T14:57:44;4.80;;;3.47;;
17451;SDS011;8843;48.838;9.324;2022-11-15T15:00:11;4.43;;;3.10;;
17451;SDS011;8843;48.838;9.324;2022-11-15T15:02:38;3.93;;;3.27;;
17451;SDS011;8843;48.838;9.324;2022-11-15T15:05:13;5.13;;;3.73;;
17451;SDS011;8843;48.838;9.324;2022-11-15T15:07:42;6.83;;;3.80;;
17451;SDS011;8843;48.838;9.324;2022-11-15T15:10:09;5.37;;;3.77;;
17451;SDS011;8843;48.838;9.324;2022-11-15T15:12:36;7.67;;;3.60;;
17451;SDS011;8843;48.838;9.324;2022-11-15T15:15:04;5.27;;;3.50;;
17451;SDS011;8843;48.838;9.324;2022-11-15T15:17:32;3.50;;;3.10;;
17451;SDS011;8843;48.838;9.324;2022-11-15T15:19:58;7.57;;;3.40;;
17451;SDS011;8843;48.838;9.324;2022-11-15T15:22:27;5.50;;;4.00;;
17451;SDS011;8843;48.838;9.324;2022-11-15T15:24:55;6.77;;;4.27;;
17451;SDS011;8843;48.838;9.324;2022-11-15T15:27:22;7.60;;;3.77;;
17451;SDS011;8843;48.838;9.324;2022-11-15T15:29:49;6.43;;;3.70;;
17451;SDS011;8843;48.838;9.324;2022-11-15T15:32:16;5.40;;;3.97;;
17451;SDS011;8843;48.838;9.324;2022-11-15T15:34:42;4.27;;;3.40;;
17451;SDS011;8843;48.838;9.324;2022-11-15T15:37:19;4.97;;;3.70;;
17451;SDS011;8843;48.838;9.324;2022-11-15T15:39:51;6.10;;;4.00;;
17451;SDS011;8843;48.838;9.324;2022-11-15T15:42:18;8.70;;;4.10;;